sensor_id;sensor_type;location;lat;lon;timestamp;P1;durP1;ratioP1;P2;durP2;ratioP2
23802;SDS011;12082;51.786;6.018;2023-07-24T00:01:13;30.40;;;28.27;;
23802;SDS011;12082;51.786;6.018;2023-07-24T00:03:39;29.37;;;27.57;;
23802;SDS011;12082;51.786;6.018;2023-07-24T00:06:04;30.57;;;28.57;;
23802;SDS011;12082;51.786;6.018;2023-07-24T00:08:30;30.10;;;28.23;;
23802;SDS011;12082;51.786;6.018;2023-07-24T00:10:55;29.60;;;27.80;;
23802;SDS011;12082;51.786;6.018;2023-07-24T00:13:21;30.83;;;28.93;;
23802;SDS011;12082;51.786;6.018;2023-07-24T00:15:46;31.27;;;29.27;;
23802;SDS011;12082;51.786;6.018;2023-07-24T00:18:12;30.40;;;27.93;;
23802;SDS011;12082;51.786;6.018;2023-07-24T00:20:38;30.90;;;28.37;;
23802;SDS011;12082;51.786;6.018;2023-07-24T00:23:03;31.57;;;29.30;;
23802;SDS011;12082;51.786;6.018;2023-07-24T00:25:29;30.23;;;28.23;;
23802;SDS011;12082;51.786;6.018;2023-07-24T00:27:55;31.30;;;29.37;;
23802;SDS011;12082;51.786;6.018;2023-07-24T00:30:20;31.63;;;29.60;;
23802;SDS011;12082;51.786;6.018;2023-07-24T00:32:46;32.27;;;30.20;;
23802;SDS011;12082;51.786;6.018;2023-07-24T00:35:11;32.53;;;30.20;;
23802;SDS011;12082;51.786;6.018;2023-07-24T00:37:37;32.87;;;30.73;;
23802;SDS011;12082;51.786;6.018;2023-07-24T00:40:03;31.27;;;29.20;;
23802;SDS011;12082;51.786;6.018;2023-07-24T00:42:29;34.73;;;32.53;;
23802;SDS011;12082;51.786;6.018;2023-07-24T00:44:54;34.47;;;32.20;;
23802;SDS011;12082;51.786;6.018;2023-07-24T00:47:20;34.90;;;32.20;;
23802;SDS011;12082;51.786;6.018;2023-07-24T00:49:47;34.17;;;31.77;;
23802;SDS011;12082;51.786;6.018;2023-07-24T00:52:14;33.80;;;31.50;;
23802;SDS011;12082;51.786;6.018;2023-07-24T00:54:40;33.50;;;30.93;;
23802;SDS011;12082;51.786;6.018;2023-07-24T00:57:06;33.50;;;31.40;;
23802;SDS011;12082;51.786;6.018;2023-07-24T00:59:32;31.57;;;29.67;;
23802;SDS011;12082;51.786;6.018;2023-07-24T01:01:58;31.97;;;29.77;;
23802;SDS011;12082;51.786;6.018;2023-07-24T01:04:24;30.70;;;28.63;;
23802;SDS011;12082;51.786;6.018;2023-07-24T01:06:49;33.80;;;31.63;;
23802;SDS011;12082;51.786;6.018;2023-07-24T01:09:15;33.27;;;31.07;;
23802;SDS011;12082;51.786;6.018;2023-07-24T01:11:43;33.30;;;31.10;;
23802;SDS011;12082;51.786;6.018;2023-07-24T01:14:15;33.67;;;31.57;;
23802;SDS011;12082;51.786;6.018;2023-07-24T01:16:49;34.43;;;32.33;;
23802;SDS011;12082;51.786;6.018;2023-07-24T01:20:02;33.73;;;31.73;;
23802;SDS011;12082;51.786;6.018;2023-07-24T01:22:10;33.70;;;31.60;;
23802;SDS011;12082;51.786;6.018;2023-07-24T01:24:52;35.27;;;33.13;;
23802;SDS011;12082;51.786;6.018;2023-07-24T01:27:42;34.00;;;31.90;;
23802;SDS011;12082;51.786;6.018;2023-07-24T01:30:09;37.40;;;35.03;;
23802;SDS011;12082;51.786;6.018;2023-07-24T01:32:35;36.53;;;34.23;;
23802;SDS011;12082;51.786;6.018;2023-07-24T01:35:02;35.07;;;32.87;;
23802;SDS011;12082;51.786;6.018;2023-07-24T01:37:27;35.30;;;33.10;;
23802;SDS011;12082;51.786;6.018;2023-07-24T01:39:53;35.27;;;33.17;;
23802;SDS011;12082;51.786;6.018;2023-07-24T01:42:21;37.43;;;34.70;;
23802;SDS011;12082;51.786;6.018;2023-07-24T01:44:54;36.73;;;34.17;;
23802;SDS011;12082;51.786;6.018;2023-07-24T01:47:20;35.53;;;33.43;;
23802;SDS011;12082;51.786;6.018;2023-07-24T01:49:46;37.10;;;34.90;;
23802;SDS011;12082;51.786;6.018;2023-07-24T01:52:12;36.03;;;33.80;;
23802;SDS011;12082;51.786;6.018;2023-07-24T01:54:38;35.83;;;33.53;;
23802;SDS011;12082;51.786;6.018;2023-07-24T01:57:04;35.77;;;33.37;;
23802;SDS011;12082;51.786;6.018;2023-07-24T01:59:29;36.10;;;33.80;;
23802;SDS011;12082;51.786;6.018;2023-07-24T02:01:55;37.20;;;34.60;;
23802;SDS011;12082;51.786;6.018;2023-07-24T02:04:21;37.93;;;35.43;;
23802;SDS011;12082;51.786;6.018;2023-07-24T02:06:50;37.23;;;34.73;;
23802;SDS011;12082;51.786;6.018;2023-07-24T02:09:17;36.93;;;34.50;;
23802;SDS011;12082;51.786;6.018;2023-07-24T02:11:43;36.10;;;33.60;;
23802;SDS011;12082;51.786;6.018;2023-07-24T02:14:08;36.80;;;34.20;;
23802;SDS011;12082;51.786;6.018;2023-07-24T02:16:34;38.97;;;36.27;;
23802;SDS011;12082;51.786;6.018;2023-07-24T02:19:00;39.40;;;36.40;;
23802;SDS011;12082;51.786;6.018;2023-07-24T02:21:26;38.77;;;35.70;;
23802;SDS011;12082;51.786;6.018;2023-07-24T02:23:51;39.40;;;36.37;;
23802;SDS011;12082;51.786;6.018;2023-07-24T02:26:17;37.17;;;34.47;;
23802;SDS011;12082;51.786;6.018;2023-07-24T02:28:42;38.43;;;35.70;;
23802;SDS011;12082;51.786;6.018;2023-07-24T02:31:08;38.53;;;35.43;;
23802;SDS011;12082;51.786;6.018;2023-07-24T02:33:33;37.03;;;33.83;;
23802;SDS011;12082;51.786;6.018;2023-07-24T02:36:00;36.80;;;34.13;;
23802;SDS011;12082;51.786;6.018;2023-07-24T02:38:26;36.67;;;33.47;;
23802;SDS011;12082;51.786;6.018;2023-07-24T02:40:51;37.67;;;34.73;;
23802;SDS011;12082;51.786;6.018;2023-07-24T02:43:17;35.00;;;32.60;;
23802;SDS011;12082;51.786;6.018;2023-07-24T02:45:42;34.97;;;32.67;;
23802;SDS011;12082;51.786;6.018;2023-07-24T02:48:08;35.93;;;33.37;;
23802;SDS011;12082;51.786;6.018;2023-07-24T02:50:33;34.53;;;32.13;;
23802;SDS011;12082;51.786;6.018;2023-07-24T02:53:00;34.40;;;31.97;;
23802;SDS011;12082;51.786;6.018;2023-07-24T02:55:26;35.17;;;32.10;;
23802;SDS011;12082;51.786;6.018;2023-07-24T02:57:52;34.77;;;32.10;;
23802;SDS011;12082;51.786;6.018;2023-07-24T03:00:17;33.00;;;30.63;;
23802;SDS011;12082;51.786;6.018;2023-07-24T03:02:43;34.37;;;32.07;;
23802;SDS011;12082;51.786;6.018;2023-07-24T03:05:09;35.00;;;32.37;;
23802;SDS011;12082;51.786;6.018;2023-07-24T03:07:34;35.00;;;32.33;;
23802;SDS011;12082;51.786;6.018;2023-07-24T03:10:00;33.93;;;31.43;;
23802;SDS011;12082;51.786;6.018;2023-07-24T03:12:26;34.60;;;32.40;;
23802;SDS011;12082;51.786;6.018;2023-07-24T03:14:52;37.00;;;34.40;;
23802;SDS011;12082;51.786;6.018;2023-07-24T03:17:17;34.70;;;32.37;;
23802;SDS011;12082;51.786;6.018;2023-07-24T07:39:03;48.13;;;43.57;;
23802;SDS011;12082;51.786;6.018;2023-07-24T07:41:29;50.93;;;46.40;;
23802;SDS011;12082;51.786;6.018;2023-07-24T07:43:55;52.93;;;48.07;;
23802;SDS011;12082;51.786;6.018;2023-07-24T07:46:20;53.73;;;49.17;;
23802;SDS011;12082;51.786;6.018;2023-07-24T07:48:46;55.90;;;51.23;;
23802;SDS011;12082;51.786;6.018;2023-07-24T07:51:12;56.90;;;52.47;;
23802;SDS011;12082;51.786;6.018;2023-07-24T07:53:37;57.30;;;51.93;;
23802;SDS011;12082;51.786;6.018;2023-07-24T07:56:03;54.43;;;50.10;;
23802;SDS011;12082;51.786;6.018;2023-07-24T07:58:29;54.10;;;50.03;;
23802;SDS011;12082;51.786;6.018;2023-07-24T08:00:55;54.30;;;50.00;;
23802;SDS011;12082;51.786;6.018;2023-07-24T08:03:21;55.43;;;50.83;;
23802;SDS011;12082;51.786;6.018;2023-07-24T08:05:46;52.23;;;48.07;;
23802;SDS011;12082;51.786;6.018;2023-07-24T08:08:12;51.70;;;47.67;;
23802;SDS011;12082;51.786;6.018;2023-07-24T08:10:38;49.03;;;45.43;;
23802;SDS011;12082;51.786;6.018;2023-07-24T08:13:04;47.37;;;43.67;;
23802;SDS011;12082;51.786;6.018;2023-07-24T08:15:35;46.97;;;43.27;;
23802;SDS011;12082;51.786;6.018;2023-07-24T08:18:01;48.67;;;44.67;;
23802;SDS011;12082;51.786;6.018;2023-07-24T08:20:30;51.17;;;46.77;;
23802;SDS011;12082;51.786;6.018;2023-07-24T08:22:56;50.77;;;46.73;;
23802;SDS011;12082;51.786;6.018;2023-07-24T08:25:22;49.83;;;45.90;;
23802;SDS011;12082;51.786;6.018;2023-07-24T08:27:48;51.30;;;46.80;;
23802;SDS011;12082;51.786;6.018;2023-07-24T08:30:13;51.87;;;47.67;;
23802;SDS011;12082;51.786;6.018;2023-07-24T08:32:39;54.37;;;49.97;;
23802;SDS011;12082;51.786;6.018;2023-07-24T08:35:05;58.03;;;53.33;;
23802;SDS011;12082;51.786;6.018;2023-07-24T08:37:31;56.90;;;52.53;;
23802;SDS011;12082;51.786;6.018;2023-07-24T08:39:56;58.43;;;53.87;;
23802;SDS011;12082;51.786;6.018;2023-07-24T08:42:22;59.63;;;54.03;;
23802;SDS011;12082;51.786;6.018;2023-07-24T08:44:48;55.93;;;51.83;;
23802;SDS011;12082;51.786;6.018;2023-07-24T08:47:14;55.67;;;51.77;;
23802;SDS011;12082;51.786;6.018;2023-07-24T08:49:40;58.23;;;54.00;;
23802;SDS011;12082;51.786;6.018;2023-07-24T08:52:07;58.10;;;53.83;;
23802;SDS011;12082;51.786;6.018;2023-07-24T08:54:35;57.83;;;53.93;;
23802;SDS011;12082;51.786;6.018;2023-07-24T08:57:02;47.93;;;44.77;;
23802;SDS011;12082;51.786;6.018;2023-07-24T08:59:31;35.90;;;33.50;;
23802;SDS011;12082;51.786;6.018;2023-07-24T09:01:57;32.37;;;30.37;;
23802;SDS011;12082;51.786;6.018;2023-07-24T09:04:23;33.60;;;31.33;;
23802;SDS011;12082;51.786;6.018;2023-07-24T09:06:49;28.97;;;27.27;;
23802;SDS011;12082;51.786;6.018;2023-07-24T09:09:16;25.90;;;24.20;;
23802;SDS011;12082;51.786;6.018;2023-07-24T09:11:49;24.60;;;23.10;;
23802;SDS011;12082;51.786;6.018;2023-07-24T09:14:28;31.43;;;29.50;;
23802;SDS011;12082;51.786;6.018;2023-07-24T09:19:30;34.60;;;32.50;;
23802;SDS011;12082;51.786;6.018;2023-07-24T09:21:56;36.33;;;34.00;;
23802;SDS011;12082;51.786;6.018;2023-07-24T09:24:32;27.50;;;25.70;;
23802;SDS011;12082;51.786;6.018;2023-07-24T09:26:57;28.23;;;26.53;;
23802;SDS011;12082;51.786;6.018;2023-07-24T09:29:29;23.33;;;21.37;;
23802;SDS011;12082;51.786;6.018;2023-07-24T09:31:56;24.07;;;22.67;;
23802;SDS011;12082;51.786;6.018;2023-07-24T09:34:21;36.63;;;34.53;;
23802;SDS011;12082;51.786;6.018;2023-07-24T09:36:47;40.07;;;37.87;;
23802;SDS011;12082;51.786;6.018;2023-07-24T09:39:12;44.60;;;42.00;;
23802;SDS011;12082;51.786;6.018;2023-07-24T09:41:39;49.60;;;47.00;;
23802;SDS011;12082;51.786;6.018;2023-07-24T09:44:05;43.27;;;40.90;;
23802;SDS011;12082;51.786;6.018;2023-07-24T09:46:31;44.73;;;42.23;;
23802;SDS011;12082;51.786;6.018;2023-07-24T09:48:57;53.67;;;50.77;;
23802;SDS011;12082;51.786;6.018;2023-07-24T09:51:24;51.97;;;48.97;;
23802;SDS011;12082;51.786;6.018;2023-07-24T09:54:06;53.03;;;50.17;;
23802;SDS011;12082;51.786;6.018;2023-07-24T09:56:32;51.40;;;48.50;;
23802;SDS011;12082;51.786;6.018;2023-07-24T09:58:59;49.23;;;46.63;;
23802;SDS011;12082;51.786;6.018;2023-07-24T10:01:27;52.37;;;49.37;;
23802;SDS011;12082;51.786;6.018;2023-07-24T10:03:53;55.33;;;52.20;;
23802;SDS011;12082;51.786;6.018;2023-07-24T10:06:20;47.20;;;44.70;;
23802;SDS011;12082;51.786;6.018;2023-07-24T10:08:46;52.43;;;49.73;;
23802;SDS011;12082;51.786;6.018;2023-07-24T10:11:13;58.80;;;55.50;;
23802;SDS011;12082;51.786;6.018;2023-07-24T10:13:42;63.17;;;59.67;;
23802;SDS011;12082;51.786;6.018;2023-07-24T10:16:08;53.73;;;50.93;;
23802;SDS011;12082;51.786;6.018;2023-07-24T10:18:34;54.73;;;51.90;;
23802;SDS011;12082;51.786;6.018;2023-07-24T10:21:07;56.63;;;53.63;;
23802;SDS011;12082;51.786;6.018;2023-07-24T10:23:33;63.13;;;59.83;;
23802;SDS011;12082;51.786;6.018;2023-07-24T10:26:03;58.57;;;55.33;;
23802;SDS011;12082;51.786;6.018;2023-07-24T10:28:33;59.30;;;55.93;;
23802;SDS011;12082;51.786;6.018;2023-07-24T10:31:03;61.07;;;57.70;;
23802;SDS011;12082;51.786;6.018;2023-07-24T10:33:33;65.83;;;62.40;;
23802;SDS011;12082;51.786;6.018;2023-07-24T10:36:05;65.07;;;61.70;;
23802;SDS011;12082;51.786;6.018;2023-07-24T10:38:38;65.37;;;61.83;;
23802;SDS011;12082;51.786;6.018;2023-07-24T10:41:05;70.70;;;67.10;;
23802;SDS011;12082;51.786;6.018;2023-07-24T10:46:09;79.50;;;75.57;;
23802;SDS011;12082;51.786;6.018;2023-07-24T10:48:35;79.10;;;74.97;;
23802;SDS011;12082;51.786;6.018;2023-07-24T10:51:05;79.00;;;75.00;;
23802;SDS011;12082;51.786;6.018;2023-07-24T10:53:34;82.50;;;78.03;;
23802;SDS011;12082;51.786;6.018;2023-07-24T10:56:00;80.93;;;76.80;;
23802;SDS011;12082;51.786;6.018;2023-07-24T10:58:26;82.13;;;78.07;;
23802;SDS011;12082;51.786;6.018;2023-07-24T11:00:52;83.60;;;79.20;;
23802;SDS011;12082;51.786;6.018;2023-07-24T11:03:18;82.43;;;78.37;;
23802;SDS011;12082;51.786;6.018;2023-07-24T11:05:45;83.27;;;78.80;;
23802;SDS011;12082;51.786;6.018;2023-07-24T11:08:12;85.47;;;81.20;;
23802;SDS011;12082;51.786;6.018;2023-07-24T11:10:44;85.10;;;80.77;;
23802;SDS011;12082;51.786;6.018;2023-07-24T11:13:14;82.87;;;78.83;;
23802;SDS011;12082;51.786;6.018;2023-07-24T11:15:40;84.67;;;80.47;;
23802;SDS011;12082;51.786;6.018;2023-07-24T11:18:05;85.37;;;81.07;;
23802;SDS011;12082;51.786;6.018;2023-07-24T11:20:33;85.87;;;81.53;;
23802;SDS011;12082;51.786;6.018;2023-07-24T11:23:09;80.63;;;76.70;;
23802;SDS011;12082;51.786;6.018;2023-07-24T11:25:35;83.20;;;78.73;;
23802;SDS011;12082;51.786;6.018;2023-07-24T11:28:01;81.93;;;77.87;;
23802;SDS011;12082;51.786;6.018;2023-07-24T11:30:29;76.57;;;72.47;;
23802;SDS011;12082;51.786;6.018;2023-07-24T11:32:56;60.27;;;57.07;;
23802;SDS011;12082;51.786;6.018;2023-07-24T11:35:24;52.80;;;50.10;;
23802;SDS011;12082;51.786;6.018;2023-07-24T11:37:50;41.00;;;38.80;;
23802;SDS011;12082;51.786;6.018;2023-07-24T11:40:16;30.67;;;28.97;;
23802;SDS011;12082;51.786;6.018;2023-07-24T11:42:43;28.70;;;27.10;;
23802;SDS011;12082;51.786;6.018;2023-07-24T11:45:10;23.47;;;22.07;;
23802;SDS011;12082;51.786;6.018;2023-07-24T11:50:07;19.03;;;17.47;;
23802;SDS011;12082;51.786;6.018;2023-07-24T11:52:43;19.53;;;18.03;;
23802;SDS011;12082;51.786;6.018;2023-07-24T11:55:11;20.20;;;19.00;;
23802;SDS011;12082;51.786;6.018;2023-07-24T11:57:38;20.80;;;19.50;;
23802;SDS011;12082;51.786;6.018;2023-07-24T12:00:04;21.10;;;19.90;;
23802;SDS011;12082;51.786;6.018;2023-07-24T12:02:31;19.17;;;17.77;;
23802;SDS011;12082;51.786;6.018;2023-07-24T12:04:58;19.17;;;17.97;;
23802;SDS011;12082;51.786;6.018;2023-07-24T12:07:34;19.53;;;18.43;;
23802;SDS011;12082;51.786;6.018;2023-07-24T12:10:01;20.00;;;18.80;;
23802;SDS011;12082;51.786;6.018;2023-07-24T12:12:43;20.57;;;19.27;;
23802;SDS011;12082;51.786;6.018;2023-07-24T12:15:10;16.33;;;15.20;;
23802;SDS011;12082;51.786;6.018;2023-07-24T12:17:37;17.70;;;16.40;;
23802;SDS011;12082;51.786;6.018;2023-07-24T12:20:03;18.13;;;16.93;;
23802;SDS011;12082;51.786;6.018;2023-07-24T12:22:31;16.27;;;14.97;;
23802;SDS011;12082;51.786;6.018;2023-07-24T12:24:57;16.07;;;14.90;;
23802;SDS011;12082;51.786;6.018;2023-07-24T12:27:23;15.97;;;14.97;;
23802;SDS011;12082;51.786;6.018;2023-07-24T12:29:49;15.67;;;14.50;;
23802;SDS011;12082;51.786;6.018;2023-07-24T12:32:16;15.13;;;14.03;;
23802;SDS011;12082;51.786;6.018;2023-07-24T12:34:41;15.30;;;14.20;;
23802;SDS011;12082;51.786;6.018;2023-07-24T12:37:07;15.87;;;14.33;;
23802;SDS011;12082;51.786;6.018;2023-07-24T12:39:32;15.07;;;14.07;;
23802;SDS011;12082;51.786;6.018;2023-07-24T12:41:58;14.70;;;13.70;;
23802;SDS011;12082;51.786;6.018;2023-07-24T12:44:23;15.43;;;14.30;;
23802;SDS011;12082;51.786;6.018;2023-07-24T12:46:51;15.37;;;14.27;;
23802;SDS011;12082;51.786;6.018;2023-07-24T12:49:16;15.90;;;14.57;;
23802;SDS011;12082;51.786;6.018;2023-07-24T12:51:42;16.27;;;14.77;;
23802;SDS011;12082;51.786;6.018;2023-07-24T12:54:07;16.67;;;15.43;;
23802;SDS011;12082;51.786;6.018;2023-07-24T12:56:33;16.47;;;15.00;;
23802;SDS011;12082;51.786;6.018;2023-07-24T12:58:58;17.63;;;16.23;;
23802;SDS011;12082;51.786;6.018;2023-07-24T13:01:24;16.07;;;14.87;;
23802;SDS011;12082;51.786;6.018;2023-07-24T13:03:49;16.47;;;14.80;;
23802;SDS011;12082;51.786;6.018;2023-07-24T13:06:15;16.33;;;15.03;;
23802;SDS011;12082;51.786;6.018;2023-07-24T13:08:41;15.33;;;14.07;;
23802;SDS011;12082;51.786;6.018;2023-07-24T13:11:06;14.83;;;13.70;;
23802;SDS011;12082;51.786;6.018;2023-07-24T13:13:32;14.83;;;13.73;;
23802;SDS011;12082;51.786;6.018;2023-07-24T13:15:57;15.37;;;13.97;;
23802;SDS011;12082;51.786;6.018;2023-07-24T13:18:23;14.57;;;13.57;;
23802;SDS011;12082;51.786;6.018;2023-07-24T13:20:48;14.27;;;13.17;;
23802;SDS011;12082;51.786;6.018;2023-07-24T13:23:14;15.17;;;14.17;;
23802;SDS011;12082;51.786;6.018;2023-07-24T13:25:39;14.70;;;13.70;;
23802;SDS011;12082;51.786;6.018;2023-07-24T13:28:05;13.33;;;12.33;;
23802;SDS011;12082;51.786;6.018;2023-07-24T13:30:30;13.87;;;12.77;;
23802;SDS011;12082;51.786;6.018;2023-07-24T13:32:56;14.33;;;13.30;;
23802;SDS011;12082;51.786;6.018;2023-07-24T13:35:22;15.20;;;14.00;;
23802;SDS011;12082;51.786;6.018;2023-07-24T13:37:47;17.73;;;16.23;;
23802;SDS011;12082;51.786;6.018;2023-07-24T13:40:13;15.53;;;14.43;;
23802;SDS011;12082;51.786;6.018;2023-07-24T13:42:38;16.03;;;14.87;;
23802;SDS011;12082;51.786;6.018;2023-07-24T13:45:04;16.87;;;15.77;;
23802;SDS011;12082;51.786;6.018;2023-07-24T13:47:30;15.93;;;14.77;;
23802;SDS011;12082;51.786;6.018;2023-07-24T13:49:56;16.37;;;14.77;;
23802;SDS011;12082;51.786;6.018;2023-07-24T13:52:21;16.17;;;14.77;;
23802;SDS011;12082;51.786;6.018;2023-07-24T13:54:47;15.23;;;14.33;;
23802;SDS011;12082;51.786;6.018;2023-07-24T13:57:13;15.60;;;14.30;;
23802;SDS011;12082;51.786;6.018;2023-07-24T13:59:38;15.47;;;14.47;;
23802;SDS011;12082;51.786;6.018;2023-07-24T14:02:04;15.27;;;14.27;;
23802;SDS011;12082;51.786;6.018;2023-07-24T14:04:31;15.60;;;14.37;;
23802;SDS011;12082;51.786;6.018;2023-07-24T14:06:57;15.10;;;14.00;;
23802;SDS011;12082;51.786;6.018;2023-07-24T14:09:22;16.33;;;15.13;;
23802;SDS011;12082;51.786;6.018;2023-07-24T14:11:48;16.73;;;15.27;;
23802;SDS011;12082;51.786;6.018;2023-07-24T14:14:13;17.00;;;15.57;;
23802;SDS011;12082;51.786;6.018;2023-07-24T14:16:40;17.80;;;16.40;;
23802;SDS011;12082;51.786;6.018;2023-07-24T14:19:05;16.23;;;15.00;;
23802;SDS011;12082;51.786;6.018;2023-07-24T14:21:31;17.73;;;16.33;;
23802;SDS011;12082;51.786;6.018;2023-07-24T14:23:56;16.53;;;15.00;;
23802;SDS011;12082;51.786;6.018;2023-07-24T14:26:22;17.07;;;15.57;;
23802;SDS011;12082;51.786;6.018;2023-07-24T14:28:48;16.03;;;14.87;;
23802;SDS011;12082;51.786;6.018;2023-07-24T14:31:14;20.80;;;18.73;;
23802;SDS011;12082;51.786;6.018;2023-07-24T14:33:39;25.37;;;23.27;;
23802;SDS011;12082;51.786;6.018;2023-07-24T14:36:05;24.57;;;22.73;;
23802;SDS011;12082;51.786;6.018;2023-07-24T14:38:30;26.37;;;24.67;;
23802;SDS011;12082;51.786;6.018;2023-07-24T14:40:56;30.40;;;28.30;;
23802;SDS011;12082;51.786;6.018;2023-07-24T14:43:21;30.33;;;28.27;;
23802;SDS011;12082;51.786;6.018;2023-07-24T14:45:47;32.87;;;30.70;;
23802;SDS011;12082;51.786;6.018;2023-07-24T14:48:13;35.50;;;33.00;;
23802;SDS011;12082;51.786;6.018;2023-07-24T14:50:39;42.17;;;39.53;;
23802;SDS011;12082;51.786;6.018;2023-07-24T14:53:05;46.23;;;43.40;;
23802;SDS011;12082;51.786;6.018;2023-07-24T14:55:30;52.87;;;49.77;;
23802;SDS011;12082;51.786;6.018;2023-07-24T14:57:56;55.97;;;52.63;;
23802;SDS011;12082;51.786;6.018;2023-07-24T15:00:21;58.23;;;54.73;;
23802;SDS011;12082;51.786;6.018;2023-07-24T15:02:47;67.30;;;63.47;;
23802;SDS011;12082;51.786;6.018;2023-07-24T15:05:13;79.07;;;75.00;;
23802;SDS011;12082;51.786;6.018;2023-07-24T15:07:38;56.50;;;53.33;;
23802;SDS011;12082;51.786;6.018;2023-07-24T15:10:04;39.90;;;37.43;;
23802;SDS011;12082;51.786;6.018;2023-07-24T15:12:30;22.27;;;21.07;;
23802;SDS011;12082;51.786;6.018;2023-07-24T15:14:55;14.73;;;13.63;;
23802;SDS011;12082;51.786;6.018;2023-07-24T15:17:21;14.17;;;13.00;;
23802;SDS011;12082;51.786;6.018;2023-07-24T15:19:46;12.77;;;11.80;;
23802;SDS011;12082;51.786;6.018;2023-07-24T15:22:12;13.93;;;12.70;;
23802;SDS011;12082;51.786;6.018;2023-07-24T15:24:39;13.97;;;13.07;;
23802;SDS011;12082;51.786;6.018;2023-07-24T15:27:06;15.17;;;14.10;;
23802;SDS011;12082;51.786;6.018;2023-07-24T15:29:36;16.23;;;15.10;;
23802;SDS011;12082;51.786;6.018;2023-07-24T15:32:02;17.23;;;16.10;;
23802;SDS011;12082;51.786;6.018;2023-07-24T15:34:29;15.57;;;14.30;;
23802;SDS011;12082;51.786;6.018;2023-07-24T15:36:55;15.03;;;13.93;;
23802;SDS011;12082;51.786;6.018;2023-07-24T15:39:21;14.77;;;13.53;;
23802;SDS011;12082;51.786;6.018;2023-07-24T15:41:46;16.63;;;15.47;;
23802;SDS011;12082;51.786;6.018;2023-07-24T15:44:12;20.77;;;19.20;;
23802;SDS011;12082;51.786;6.018;2023-07-24T15:46:37;34.27;;;32.00;;
23802;SDS011;12082;51.786;6.018;2023-07-24T15:49:03;50.07;;;47.37;;
23802;SDS011;12082;51.786;6.018;2023-07-24T15:51:28;70.70;;;67.07;;
23802;SDS011;12082;51.786;6.018;2023-07-24T15:53:56;93.40;;;88.07;;
23802;SDS011;12082;51.786;6.018;2023-07-24T15:56:22;81.47;;;76.97;;
23802;SDS011;12082;51.786;6.018;2023-07-24T15:58:49;74.17;;;70.10;;
23802;SDS011;12082;51.786;6.018;2023-07-24T16:01:16;61.83;;;57.77;;
23802;SDS011;12082;51.786;6.018;2023-07-24T16:03:42;59.53;;;56.00;;
23802;SDS011;12082;51.786;6.018;2023-07-24T16:06:08;56.93;;;53.67;;
23802;SDS011;12082;51.786;6.018;2023-07-24T16:08:34;80.07;;;75.53;;
23802;SDS011;12082;51.786;6.018;2023-07-24T16:11:00;79.70;;;74.87;;
23802;SDS011;12082;51.786;6.018;2023-07-24T16:13:26;82.83;;;77.97;;
23802;SDS011;12082;51.786;6.018;2023-07-24T16:15:52;84.57;;;79.37;;
23802;SDS011;12082;51.786;6.018;2023-07-24T16:18:21;82.00;;;76.97;;
23802;SDS011;12082;51.786;6.018;2023-07-24T16:20:48;80.90;;;75.53;;
23802;SDS011;12082;51.786;6.018;2023-07-24T16:23:13;80.07;;;75.10;;
23802;SDS011;12082;51.786;6.018;2023-07-24T16:25:39;81.43;;;76.80;;
23802;SDS011;12082;51.786;6.018;2023-07-24T16:28:04;80.50;;;75.80;;
23802;SDS011;12082;51.786;6.018;2023-07-24T16:30:30;63.80;;;59.90;;
23802;SDS011;12082;51.786;6.018;2023-07-24T16:32:56;55.53;;;52.00;;
23802;SDS011;12082;51.786;6.018;2023-07-24T16:35:23;54.27;;;50.50;;
23802;SDS011;12082;51.786;6.018;2023-07-24T16:37:49;52.43;;;48.93;;
23802;SDS011;12082;51.786;6.018;2023-07-24T16:40:14;50.23;;;46.70;;
23802;SDS011;12082;51.786;6.018;2023-07-24T16:42:40;54.93;;;50.73;;
23802;SDS011;12082;51.786;6.018;2023-07-24T16:45:06;56.63;;;52.50;;
23802;SDS011;12082;51.786;6.018;2023-07-24T16:47:31;55.60;;;52.00;;
23802;SDS011;12082;51.786;6.018;2023-07-24T16:49:57;57.03;;;53.07;;
23802;SDS011;12082;51.786;6.018;2023-07-24T16:52:23;59.07;;;54.70;;
23802;SDS011;12082;51.786;6.018;2023-07-24T16:54:48;57.70;;;53.63;;
23802;SDS011;12082;51.786;6.018;2023-07-24T16:57:15;57.20;;;53.40;;
23802;SDS011;12082;51.786;6.018;2023-07-24T16:59:41;60.57;;;56.10;;
23802;SDS011;12082;51.786;6.018;2023-07-24T17:02:06;59.73;;;55.07;;
23802;SDS011;12082;51.786;6.018;2023-07-24T17:04:32;67.10;;;62.27;;
23802;SDS011;12082;51.786;6.018;2023-07-24T17:06:57;70.30;;;65.33;;
23802;SDS011;12082;51.786;6.018;2023-07-24T17:09:23;64.63;;;59.73;;
23802;SDS011;12082;51.786;6.018;2023-07-24T17:11:48;61.90;;;57.53;;
23802;SDS011;12082;51.786;6.018;2023-07-24T17:14:14;68.47;;;63.50;;
23802;SDS011;12082;51.786;6.018;2023-07-24T17:16:40;64.20;;;60.10;;
23802;SDS011;12082;51.786;6.018;2023-07-24T17:19:05;64.20;;;59.63;;
23802;SDS011;12082;51.786;6.018;2023-07-24T17:21:31;66.63;;;61.97;;
23802;SDS011;12082;51.786;6.018;2023-07-24T17:23:56;62.60;;;58.27;;
23802;SDS011;12082;51.786;6.018;2023-07-24T17:26:22;56.83;;;53.13;;
23802;SDS011;12082;51.786;6.018;2023-07-24T17:28:47;54.97;;;51.63;;
23802;SDS011;12082;51.786;6.018;2023-07-24T17:31:13;47.60;;;44.40;;
23802;SDS011;12082;51.786;6.018;2023-07-24T17:33:38;52.50;;;49.33;;
23802;SDS011;12082;51.786;6.018;2023-07-24T17:36:04;53.27;;;50.13;;
23802;SDS011;12082;51.786;6.018;2023-07-24T17:38:30;49.83;;;47.23;;
23802;SDS011;12082;51.786;6.018;2023-07-24T17:40:56;51.37;;;48.27;;
23802;SDS011;12082;51.786;6.018;2023-07-24T17:43:25;53.67;;;50.30;;
23802;SDS011;12082;51.786;6.018;2023-07-24T17:45:51;52.00;;;49.30;;
23802;SDS011;12082;51.786;6.018;2023-07-24T17:48:17;52.83;;;49.83;;
23802;SDS011;12082;51.786;6.018;2023-07-24T17:50:43;56.53;;;53.40;;
23802;SDS011;12082;51.786;6.018;2023-07-24T17:53:10;54.93;;;51.87;;
23802;SDS011;12082;51.786;6.018;2023-07-24T17:55:35;56.00;;;52.77;;
23802;SDS011;12082;51.786;6.018;2023-07-24T17:58:01;54.10;;;51.50;;
23802;SDS011;12082;51.786;6.018;2023-07-24T18:00:26;57.07;;;53.37;;
23802;SDS011;12082;51.786;6.018;2023-07-24T18:02:52;55.63;;;52.67;;
23802;SDS011;12082;51.786;6.018;2023-07-24T18:05:18;54.23;;;51.63;;
23802;SDS011;12082;51.786;6.018;2023-07-24T18:07:43;52.97;;;50.37;;
23802;SDS011;12082;51.786;6.018;2023-07-24T18:10:09;56.80;;;54.10;;
23802;SDS011;12082;51.786;6.018;2023-07-24T18:12:34;57.40;;;54.33;;
23802;SDS011;12082;51.786;6.018;2023-07-24T18:15:00;60.57;;;57.77;;
23802;SDS011;12082;51.786;6.018;2023-07-24T18:17:26;63.10;;;60.17;;
23802;SDS011;12082;51.786;6.018;2023-07-24T18:19:51;63.97;;;60.63;;
23802;SDS011;12082;51.786;6.018;2023-07-24T18:22:17;61.90;;;58.53;;
23802;SDS011;12082;51.786;6.018;2023-07-24T18:24:44;60.57;;;57.67;;
23802;SDS011;12082;51.786;6.018;2023-07-24T18:27:10;55.30;;;52.70;;
23802;SDS011;12082;51.786;6.018;2023-07-24T18:29:36;54.53;;;51.73;;
23802;SDS011;12082;51.786;6.018;2023-07-24T18:32:02;61.43;;;58.17;;
23802;SDS011;12082;51.786;6.018;2023-07-24T18:34:27;60.87;;;57.50;;
23802;SDS011;12082;51.786;6.018;2023-07-24T18:36:53;59.10;;;56.20;;
23802;SDS011;12082;51.786;6.018;2023-07-24T18:39:18;58.83;;;55.80;;
23802;SDS011;12082;51.786;6.018;2023-07-24T18:41:44;57.27;;;54.23;;
23802;SDS011;12082;51.786;6.018;2023-07-24T18:44:09;58.37;;;55.40;;